sensor_id;sensor_type;location;lat;lon;timestamp;P1;durP1;ratioP1;P2;durP2;ratioP2
23768;SDS011;12064;50.890;5.424;2023-12-20T00:01:34;0.70;;;0.70;;
23768;SDS011;12064;50.890;5.424;2023-12-20T00:10:25;0.50;;;0.43;;
23768;SDS011;12064;50.890;5.424;2023-12-20T00:19:16;0.53;;;0.53;;
23768;SDS011;12064;50.890;5.424;2023-12-20T00:28:07;0.60;;;0.60;;
23768;SDS011;12064;50.890;5.424;2023-12-20T00:36:57;1.00;;;0.60;;
23768;SDS011;12064;50.890;5.424;2023-12-20T00:45:48;0.80;;;0.47;;
23768;SDS011;12064;50.890;5.424;2023-12-20T00:54:39;1.65;;;0.50;;
23768;SDS011;12064;50.890;5.424;2023-12-20T01:03:29;0.73;;;0.52;;
23768;SDS011;12064;50.890;5.424;2023-12-20T01:12:20;1.10;;;0.52;;
23768;SDS011;12064;50.890;5.424;2023-12-20T01:21:11;0.57;;;0.57;;
23768;SDS011;12064;50.890;5.424;2023-12-20T01:30:01;0.68;;;0.60;;
23768;SDS011;12064;50.890;5.424;2023-12-20T01:38:52;0.75;;;0.60;;
23768;SDS011;12064;50.890;5.424;2023-12-20T01:47:43;3.07;;;0.70;;
23768;SDS011;12064;50.890;5.424;2023-12-20T01:56:33;0.47;;;0.47;;
23768;SDS011;12064;50.890;5.424;2023-12-20T02:05:24;0.75;;;0.57;;
23768;SDS011;12064;50.890;5.424;2023-12-20T02:14:15;1.02;;;0.60;;
23768;SDS011;12064;50.890;5.424;2023-12-20T02:23:06;0.85;;;0.50;;
23768;SDS011;12064;50.890;5.424;2023-12-20T02:31:57;0.77;;;0.60;;
23768;SDS011;12064;50.890;5.424;2023-12-20T02:40:47;1.30;;;0.60;;
23768;SDS011;12064;50.890;5.424;2023-12-20T02:49:41;1.35;;;0.90;;
23768;SDS011;12064;50.890;5.424;2023-12-20T02:58:32;1.70;;;0.60;;
23768;SDS011;12064;50.890;5.424;2023-12-20T03:07:25;1.02;;;0.70;;
23768;SDS011;12064;50.890;5.424;2023-12-20T03:16:16;0.87;;;0.60;;
23768;SDS011;12064;50.890;5.424;2023-12-20T03:25:08;1.38;;;0.55;;
23768;SDS011;12064;50.890;5.424;2023-12-20T03:33:59;0.70;;;0.50;;
23768;SDS011;12064;50.890;5.424;2023-12-20T03:42:49;3.13;;;0.57;;
23768;SDS011;12064;50.890;5.424;2023-12-20T03:51:40;2.37;;;0.70;;
23768;SDS011;12064;50.890;5.424;2023-12-20T04:00:32;1.85;;;0.60;;
23768;SDS011;12064;50.890;5.424;2023-12-20T04:09:22;1.27;;;0.60;;
23768;SDS011;12064;50.890;5.424;2023-12-20T04:18:13;0.50;;;0.43;;
23768;SDS011;12064;50.890;5.424;2023-12-20T04:27:04;1.30;;;0.70;;
23768;SDS011;12064;50.890;5.424;2023-12-20T04:35:54;2.83;;;0.50;;
23768;SDS011;12064;50.890;5.424;2023-12-20T04:44:45;1.75;;;0.50;;
23768;SDS011;12064;50.890;5.424;2023-12-20T04:53:36;0.95;;;0.50;;
23768;SDS011;12064;50.890;5.424;2023-12-20T05:02:26;1.50;;;0.70;;
23768;SDS011;12064;50.890;5.424;2023-12-20T05:11:17;1.98;;;0.60;;
23768;SDS011;12064;50.890;5.424;2023-12-20T05:20:08;0.95;;;0.60;;
23768;SDS011;12064;50.890;5.424;2023-12-20T05:28:59;1.88;;;0.73;;
23768;SDS011;12064;50.890;5.424;2023-12-20T05:37:49;2.20;;;0.80;;
23768;SDS011;12064;50.890;5.424;2023-12-20T05:46:40;2.20;;;1.00;;
23768;SDS011;12064;50.890;5.424;2023-12-20T05:55:31;3.13;;;1.20;;
23768;SDS011;12064;50.890;5.424;2023-12-20T06:04:21;3.78;;;1.13;;
23768;SDS011;12064;50.890;5.424;2023-12-20T06:13:15;3.35;;;1.10;;
23768;SDS011;12064;50.890;5.424;2023-12-20T06:22:05;3.92;;;1.30;;
23768;SDS011;12064;50.890;5.424;2023-12-20T06:30:59;2.80;;;1.20;;
23768;SDS011;12064;50.890;5.424;2023-12-20T06:39:50;2.55;;;0.80;;
23768;SDS011;12064;50.890;5.424;2023-12-20T06:48:41;2.87;;;1.10;;
23768;SDS011;12064;50.890;5.424;2023-12-20T06:57:33;2.58;;;0.93;;
23768;SDS011;12064;50.890;5.424;2023-12-20T07:06:26;1.27;;;0.80;;
23768;SDS011;12064;50.890;5.424;2023-12-20T07:15:16;2.53;;;0.70;;
23768;SDS011;12064;50.890;5.424;2023-12-20T07:24:07;1.73;;;0.73;;
23768;SDS011;12064;50.890;5.424;2023-12-20T07:32:58;2.80;;;1.00;;
23768;SDS011;12064;50.890;5.424;2023-12-20T07:41:48;2.53;;;0.90;;
23768;SDS011;12064;50.890;5.424;2023-12-20T07:50:39;1.13;;;0.67;;
23768;SDS011;12064;50.890;5.424;2023-12-20T07:59:30;2.50;;;0.98;;
23768;SDS011;12064;50.890;5.424;2023-12-20T08:08:21;1.33;;;0.80;;
23768;SDS011;12064;50.890;5.424;2023-12-20T08:17:11;1.37;;;0.70;;
23768;SDS011;12064;50.890;5.424;2023-12-20T08:26:06;2.08;;;0.98;;
23768;SDS011;12064;50.890;5.424;2023-12-20T08:34:57;1.77;;;0.80;;
23768;SDS011;12064;50.890;5.424;2023-12-20T08:43:48;1.35;;;0.77;;
23768;SDS011;12064;50.890;5.424;2023-12-20T08:52:39;1.73;;;0.70;;
23768;SDS011;12064;50.890;5.424;2023-12-20T09:01:29;3.20;;;1.00;;
23768;SDS011;12064;50.890;5.424;2023-12-20T09:10:20;1.50;;;0.80;;
23768;SDS011;12064;50.890;5.424;2023-12-20T09:19:12;1.20;;;0.70;;
23768;SDS011;12064;50.890;5.424;2023-12-20T09:28:03;1.20;;;0.70;;
23768;SDS011;12064;50.890;5.424;2023-12-20T09:36:53;2.15;;;0.80;;
23768;SDS011;12064;50.890;5.424;2023-12-20T09:45:45;1.17;;;0.70;;
23768;SDS011;12064;50.890;5.424;2023-12-20T09:54:38;1.20;;;0.70;;
23768;SDS011;12064;50.890;5.424;2023-12-20T10:03:29;1.20;;;0.70;;
23768;SDS011;12064;50.890;5.424;2023-12-20T10:12:23;1.33;;;0.90;;
23768;SDS011;12064;50.890;5.424;2023-12-20T10:21:14;1.65;;;0.60;;
23768;SDS011;12064;50.890;5.424;2023-12-20T10:30:05;1.23;;;0.60;;
23768;SDS011;12064;50.890;5.424;2023-12-20T10:38:56;1.30;;;0.63;;
23768;SDS011;12064;50.890;5.424;2023-12-20T10:47:48;2.28;;;0.80;;
23768;SDS011;12064;50.890;5.424;2023-12-20T10:56:40;1.30;;;0.90;;
23768;SDS011;12064;50.890;5.424;2023-12-20T11:14:47;1.67;;;0.90;;
23768;SDS011;12064;50.890;5.424;2023-12-20T11:23:43;1.40;;;0.80;;
23768;SDS011;12064;50.890;5.424;2023-12-20T11:32:34;2.65;;;1.02;;
23768;SDS011;12064;50.890;5.424;2023-12-20T11:41:26;1.13;;;0.70;;
23768;SDS011;12064;50.890;5.424;2023-12-20T11:50:17;1.05;;;0.65;;
23768;SDS011;12064;50.890;5.424;2023-12-20T11:59:08;0.80;;;0.60;;
23768;SDS011;12064;50.890;5.424;2023-12-20T12:07:59;1.23;;;0.65;;
23768;SDS011;12064;50.890;5.424;2023-12-20T12:16:49;0.95;;;0.80;;
23768;SDS011;12064;50.890;5.424;2023-12-20T12:25:40;1.13;;;0.60;;
23768;SDS011;12064;50.890;5.424;2023-12-20T12:34:31;0.95;;;0.70;;
23768;SDS011;12064;50.890;5.424;2023-12-20T12:43:22;0.70;;;0.60;;
23768;SDS011;12064;50.890;5.424;2023-12-20T12:52:13;0.63;;;0.60;;
23768;SDS011;12064;50.890;5.424;2023-12-20T13:01:03;1.27;;;0.70;;
23768;SDS011;12064;50.890;5.424;2023-12-20T13:09:54;1.85;;;0.77;;
23768;SDS011;12064;50.890;5.424;2023-12-20T13:18:44;1.57;;;0.60;;
23768;SDS011;12064;50.890;5.424;2023-12-20T13:27:35;1.07;;;0.87;;
23768;SDS011;12064;50.890;5.424;2023-12-20T13:36:26;0.85;;;0.73;;
23768;SDS011;12064;50.890;5.424;2023-12-20T13:45:16;0.63;;;0.60;;
23768;SDS011;12064;50.890;5.424;2023-12-20T13:54:07;0.75;;;0.70;;
23768;SDS011;12064;50.890;5.424;2023-12-20T14:02:58;1.42;;;0.73;;
23768;SDS011;12064;50.890;5.424;2023-12-20T14:11:49;1.15;;;0.70;;
23768;SDS011;12064;50.890;5.424;2023-12-20T14:20:39;0.80;;;0.60;;
23768;SDS011;12064;50.890;5.424;2023-12-20T14:29:32;1.52;;;0.80;;
23768;SDS011;12064;50.890;5.424;2023-12-20T14:38:22;1.00;;;0.50;;
23768;SDS011;12064;50.890;5.424;2023-12-20T14:47:13;0.80;;;0.63;;
23768;SDS011;12064;50.890;5.424;2023-12-20T14:56:05;1.42;;;0.85;;
23768;SDS011;12064;50.890;5.424;2023-12-20T15:04:56;1.08;;;0.70;;
23768;SDS011;12064;50.890;5.424;2023-12-20T15:13:46;1.08;;;0.60;;
23768;SDS011;12064;50.890;5.424;2023-12-20T15:22:44;1.02;;;0.60;;
23768;SDS011;12064;50.890;5.424;2023-12-20T15:31:36;1.15;;;0.73;;
23768;SDS011;12064;50.890;5.424;2023-12-20T15:40:31;0.73;;;0.60;;
23768;SDS011;12064;50.890;5.424;2023-12-20T15:49:22;0.90;;;0.70;;
23768;SDS011;12064;50.890;5.424;2023-12-20T15:58:13;0.40;;;0.40;;
23768;SDS011;12064;50.890;5.424;2023-12-20T16:07:03;0.63;;;0.47;;
23768;SDS011;12064;50.890;5.424;2023-12-20T16:15:54;1.33;;;0.90;;
23768;SDS011;12064;50.890;5.424;2023-12-20T16:24:45;0.90;;;0.60;;
23768;SDS011;12064;50.890;5.424;2023-12-20T16:33:38;1.70;;;0.80;;
23768;SDS011;12064;50.890;5.424;2023-12-20T16:42:29;1.08;;;0.80;;
23768;SDS011;12064;50.890;5.424;2023-12-20T16:51:19;0.80;;;0.80;;
23768;SDS011;12064;50.890;5.424;2023-12-20T17:00:11;1.25;;;0.85;;
23768;SDS011;12064;50.890;5.424;2023-12-20T17:09:03;1.48;;;0.98;;
23768;SDS011;12064;50.890;5.424;2023-12-20T17:17:53;1.15;;;0.98;;
23768;SDS011;12064;50.890;5.424;2023-12-20T17:26:44;1.07;;;0.73;;
23768;SDS011;12064;50.890;5.424;2023-12-20T17:35:35;1.13;;;0.80;;
23768;SDS011;12064;50.890;5.424;2023-12-20T17:44:25;1.30;;;0.90;;
23768;SDS011;12064;50.890;5.424;2023-12-20T17:53:17;1.35;;;0.70;;
23768;SDS011;12064;50.890;5.424;2023-12-20T18:02:08;0.70;;;0.70;;
23768;SDS011;12064;50.890;5.424;2023-12-20T18:10:59;1.00;;;0.80;;
23768;SDS011;12064;50.890;5.424;2023-12-20T18:19:49;0.70;;;0.70;;
23768;SDS011;12064;50.890;5.424;2023-12-20T18:28:40;1.10;;;1.00;;
23768;SDS011;12064;50.890;5.424;2023-12-20T18:37:30;1.20;;;0.70;;
23768;SDS011;12064;50.890;5.424;2023-12-20T18:46:21;1.30;;;1.20;;
23768;SDS011;12064;50.890;5.424;2023-12-20T18:55:13;0.95;;;0.80;;
23768;SDS011;12064;50.890;5.424;2023-12-20T19:04:04;0.95;;;0.80;;
23768;SDS011;12064;50.890;5.424;2023-12-20T19:12:54;1.08;;;0.80;;
23768;SDS011;12064;50.890;5.424;2023-12-20T19:21:45;0.97;;;0.80;;
23768;SDS011;12064;50.890;5.424;2023-12-20T19:30:36;1.20;;;1.02;;
23768;SDS011;12064;50.890;5.424;2023-12-20T19:39:27;0.90;;;0.75;;
23768;SDS011;12064;50.890;5.424;2023-12-20T19:48:19;1.13;;;1.03;;
23768;SDS011;12064;50.890;5.424;2023-12-20T19:57:09;1.25;;;1.10;;
23768;SDS011;12064;50.890;5.424;2023-12-20T20:06:00;1.75;;;1.02;;
23768;SDS011;12064;50.890;5.424;2023-12-20T20:14:51;0.90;;;0.90;;
23768;SDS011;12064;50.890;5.424;2023-12-20T20:23:42;0.90;;;0.90;;
23768;SDS011;12064;50.890;5.424;2023-12-20T20:32:32;1.30;;;0.90;;
23768;SDS011;12064;50.890;5.424;2023-12-20T20:41:23;1.10;;;0.90;;
23768;SDS011;12064;50.890;5.424;2023-12-20T20:50:14;1.67;;;1.00;;
23768;SDS011;12064;50.890;5.424;2023-12-20T20:59:04;1.20;;;1.10;;
23768;SDS011;12064;50.890;5.424;2023-12-20T21:07:55;1.10;;;1.00;;
23768;SDS011;12064;50.890;5.424;2023-12-20T21:16:47;1.40;;;1.00;;
23768;SDS011;12064;50.890;5.424;2023-12-20T21:25:37;2.35;;;1.02;;
23768;SDS011;12064;50.890;5.424;2023-12-20T21:34:28;1.50;;;1.10;;
23768;SDS011;12064;50.890;5.424;2023-12-20T21:43:19;1.48;;;1.13;;
23768;SDS011;12064;50.890;5.424;2023-12-20T21:52:09;3.00;;;1.02;;
23768;SDS011;12064;50.890;5.424;2023-12-20T22:01:00;1.98;;;1.10;;
23768;SDS011;12064;50.890;5.424;2023-12-20T22:09:51;1.40;;;1.00;;
23768;SDS011;12064;50.890;5.424;2023-12-20T22:18:42;1.25;;;1.00;;
23768;SDS011;12064;50.890;5.424;2023-12-20T22:27:35;2.08;;;1.08;;
23768;SDS011;12064;50.890;5.424;2023-12-20T22:36:26;2.60;;;1.20;;
23768;SDS011;12064;50.890;5.424;2023-12-20T22:45:18;2.38;;;1.20;;
23768;SDS011;12064;50.890;5.424;2023-12-20T22:54:08;1.95;;;1.05;;
23768;SDS011;12064;50.890;5.424;2023-12-20T23:02:59;1.77;;;1.10;;
23768;SDS011;12064;50.890;5.424;2023-12-20T23:11:50;1.90;;;1.20;;
23768;SDS011;12064;50.890;5.424;2023-12-20T23:20:41;1.90;;;1.10;;
23768;SDS011;12064;50.890;5.424;2023-12-20T23:29:33;1.48;;;1.20;;
23768;SDS011;12064;50.890;5.424;2023-12-20T23:38:23;1.13;;;1.03;;
23768;SDS011;12064;50.890;5.424;2023-12-20T23:47:15;1.42;;;1.10;;
23768;SDS011;12064;50.890;5.424;2023-12-20T23:56:05;1.90;;;1.10;;
